Time;durP1;ratioP1;P1;durP2;ratioP2;P2;SDS_P1;SDS_P2;PMS_P1;PMS_P2;Temp;Humidity;BMP_temperature;BMP_pressure;BME280_temperature;BME280_humidity;BME280_pressure;Samples;Min_cycle;Max_cycle;Signal;HPM_P1;HPM_P2
2023/07/17 00:01:52;;;;;;;;;;;;;;;-144.99;90.38;52223.88;4978156;28;19926;-70
2023/07/17 00:04:18;;;;;;;;;;;;;;;-144.99;90.75;52223.88;4978039;28;20321;-71
2023/07/17 00:06:46;;;;;;;;;;;;;;;-144.99;91.19;52230.00;4978183;28;20435;-70
2023/07/17 00:09:13;;;;;;;;;;;;;;;-144.99;91.49;52236.13;4978171;28;19965;-70
2023/07/17 00:11:39;;;;;;;;;;;;;;;-144.99;91.61;52244.28;4977290;28;20003;-69
2023/07/17 00:14:06;;;;;;;;;;;;;;;-144.99;92.16;52252.44;4980243;28;19926;-71
2023/07/17 00:16:32;;;;;;;;;;;;;;;-144.99;91.86;52223.88;4985862;28;19960;-71
2023/07/17 00:18:59;;;;;;;;;;;;;;;-144.99;92.11;52252.44;4987991;28;20022;-71
2023/07/17 00:21:26;;;;;;;;;;;;;;;-144.99;92.17;52268.72;4986352;28;19960;-71
2023/07/17 00:23:54;;;;;;;;;;;;;;;-144.99;92.58;52244.28;4984826;28;19930;-73
2023/07/17 00:26:21;;;;;;;;;;;;;;;-144.99;92.70;52223.88;4986986;28;19938;-71
2023/07/17 00:28:47;;;;;;;;;;;;;;;-144.99;92.75;52227.97;4650982;28;10000058;-71
2023/07/17 00:31:14;;;;;;;;;;;;;;;-144.99;92.73;52248.34;4997866;28;19929;-75
2023/07/17 00:33:40;;;;;;;;;;;;;;;-144.99;92.98;52234.09;4989040;28;19933;-72
2023/07/17 00:36:07;;;;;;;;;;;;;;;-144.99;92.83;52232.03;4985742;28;19947;-71
2023/07/17 00:38:33;;;;;;;;;;;;;;;-144.99;92.70;52215.75;4976728;28;19956;-71
2023/07/17 00:41:01;;;;;;;;;;;;;;;-144.99;92.79;52211.66;4974477;28;19975;-70
2023/07/17 00:43:28;;;;;;;;;;;;;;;-144.99;92.75;52236.13;4976989;28;19936;-68
2023/07/17 00:45:54;;;;;;;;;;;;;;;-144.99;92.63;52215.75;4979682;28;20542;-71
2023/07/17 00:48:21;;;;;;;;;;;;;;;-144.99;92.59;52234.09;4975980;28;19964;-71
2023/07/17 00:50:48;;;;;;;;;;;;;;;-144.99;92.54;52256.50;4976606;28;19996;-70
2023/07/17 00:53:15;;;;;;;;;;;;;;;-144.99;92.55;52266.69;4974636;28;20057;-70
2023/07/17 00:55:41;;;;;;;;;;;;;;;-144.99;92.50;52244.28;4974436;28;19929;-71
2023/07/17 00:58:09;;;;;;;;;;;;;;;-144.99;92.42;52260.56;4974874;28;20042;-71
2023/07/17 01:00:36;;;;;;;;;;;;;;;-144.99;92.89;52260.56;4975551;28;20621;-71
2023/07/17 01:03:04;;;;;;;;;;;;;;;-144.99;92.71;52211.66;4975009;28;19934;-74
2023/07/17 01:05:31;;;;;;;;;;;;;;;-144.99;92.91;52256.50;4974235;28;19948;-72
2023/07/17 01:07:58;;;;;;;;;;;;;;;-144.99;92.83;52223.88;4974297;28;19951;-72
2023/07/17 01:10:24;;;;;;;;;;;;;;;-144.99;93.09;52280.97;4974956;28;19933;-73
2023/07/17 01:12:51;;;;;;;;;;;;;;;-144.99;92.82;52225.94;4977367;28;20343;-73
2023/07/17 01:15:19;;;;;;;;;;;;;;;-144.99;92.70;52244.28;4975972;28;20317;-73
2023/07/17 01:17:45;;;;;;;;;;;;;;;-144.99;92.74;52238.16;4974237;28;19977;-72
2023/07/17 01:20:12;;;;;;;;;;;;;;;-144.99;92.81;52227.97;4975409;28;19983;-72
2023/07/17 01:22:42;;;;;;;;;;;;;;;-144.99;92.59;52246.31;4982192;28;20478;-72
2023/07/17 01:25:10;;;;;;;;;;;;;;;-144.99;93.10;52240.19;4978987;28;19937;-73
2023/07/17 01:27:37;;;;;;;;;;;;;;;-144.99;93.19;52238.16;4974289;28;19940;-71
2023/07/17 01:30:04;;;;;;;;;;;;;;;-144.99;93.05;52223.88;4974077;28;19949;-72
2023/07/17 01:32:31;;;;;;;;;;;;;;;-144.99;93.28;52268.72;4974729;28;20044;-72
2023/07/17 01:34:58;;;;;;;;;;;;;;;-144.99;93.22;52211.66;4980504;28;19963;-72
2023/07/17 01:37:25;;;;;;;;;;;;;;;-144.99;93.41;52219.81;4979343;28;20353;-72
2023/07/17 01:39:51;;;;;;;;;;;;;;;-144.99;93.31;52252.44;4977955;28;19942;-72
2023/07/17 01:42:19;;;;;;;;;;;;;;;-144.99;93.39;52240.19;4978303;28;19955;-72
2023/07/17 01:44:46;;;;;;;;;;;;;;;-144.99;93.46;52240.19;4978437;28;19934;-72
2023/07/17 01:47:12;;;;;;;;;;;;;;;-144.99;93.10;52250.38;4980817;28;19930;-72
2023/07/17 01:49:40;;;;;;;;;;;;;;;-144.99;93.26;52215.75;4979253;28;19933;-73
2023/07/17 01:52:08;;;;;;;;;;;;;;;-144.99;93.21;52252.44;4978133;28;20035;-71
2023/07/17 01:54:35;;;;;;;;;;;;;;;-144.99;93.18;52260.56;4978960;28;20026;-72
2023/07/17 01:57:02;;;;;;;;;;;;;;;-144.99;93.21;52242.22;4978312;28;22111;-72
2023/07/17 01:59:30;;;;;;;;;;;;;;;-144.99;93.04;52236.13;4978795;28;20451;-72
2023/07/17 02:01:56;;;;;;;;;;;;;;;-144.99;93.19;52268.72;4982907;28;19934;-73
2023/07/17 02:04:23;;;;;;;;;;;;;;;-144.99;94.32;52236.13;4974129;28;19966;-73
2023/07/17 02:06:49;;;;;;;;;;;;;;;-144.99;94.86;52232.03;4972389;28;19938;-74
2023/07/17 02:09:16;;;;;;;;;;;;;;;-144.99;95.27;52211.66;4973713;28;19963;-73
2023/07/17 02:11:42;;;;;;;;;;;;;;;-144.99;96.12;52252.44;4974730;28;20419;-74
2023/07/17 02:14:09;;;;;;;;;;;;;;;-144.99;96.73;52248.34;4972442;28;20542;-73
2023/07/17 02:16:37;;;;;;;;;;;;;;;-144.99;96.70;52195.34;4974568;28;19964;-73
2023/07/17 02:19:03;;;;;;;;;;;;;;;-144.99;96.87;52248.34;4974336;28;20029;-74
2023/07/17 02:21:30;;;;;;;;;;;;;;;-144.99;97.18;52264.66;4983379;28;19938;-72
2023/07/17 02:23:57;;;;;;;;;;;;;;;-144.99;97.64;52240.19;4990683;28;19946;-73
2023/07/17 02:26:24;;;;;;;;;;;;;;;-144.99;98.14;52283.00;5008419;28;19925;-73
2023/07/17 02:28:51;;;;;;;;;;;;;;;-144.99;97.85;52266.69;4994644;28;19930;-72
2023/07/17 02:31:17;;;;;;;;;;;;;;;-144.99;98.09;52260.56;4987613;28;20323;-74
2023/07/17 02:33:45;;;;;;;;;;;;;;;-144.99;98.04;52215.75;4988426;28;20381;-72
2023/07/17 02:36:12;;;;;;;;;;;;;;;-144.99;98.00;52252.44;4988118;28;19943;-73
2023/07/17 02:38:39;;;;;;;;;;;;;;;-144.99;99.15;52264.66;4998472;28;20010;-74
2023/07/17 02:41:05;;;;;;;;;;;;;;;-144.99;98.52;52244.28;4989533;28;19992;-72
2023/07/17 02:43:32;;;;;;;;;;;;;;;-144.99;98.53;52252.44;4987221;28;19996;-72
2023/07/17 02:45:58;;;;;;;;;;;;;;;-144.99;98.56;52219.81;4979058;28;19942;-72
2023/07/17 02:48:25;;;;;;;;;;;;;;;-144.99;99.11;52264.66;4978769;28;19964;-71
2023/07/17 02:50:53;;;;;;;;;;;;;;;-144.99;99.36;52252.44;4959206;28;19933;-72
2023/07/17 02:53:19;;;;;;;;;;;;;;;-144.99;99.76;52236.13;4977845;28;19941;-73
2023/07/17 02:55:46;;;;;;;;;;;;;;;-144.99;99.72;52244.28;4976588;28;19949;-73
2023/07/17 02:58:16;;;;;;;;;;;;;;;-144.99;99.63;52232.03;4976031;28;19945;-73
2023/07/17 03:00:43;;;;;;;;;;;;;;;-144.99;99.97;52227.97;4977178;28;20585;-72
2023/07/17 03:03:10;;;;;;;;;;;;;;;-144.99;99.66;52264.66;4976525;28;20147;-72
2023/07/17 03:05:36;;;;;;;;;;;;;;;-144.99;99.39;52280.97;4977403;28;19992;-73
2023/07/17 03:08:04;;;;;;;;;;;;;;;-144.99;99.60;52260.56;4976923;28;19941;-72
2023/07/17 03:10:31;;;;;;;;;;;;;;;-144.99;99.46;52221.84;4976841;28;19944;-74
2023/07/17 03:12:58;;;;;;;;;;;;;;;-144.99;99.57;52264.66;4976598;28;19960;-73
2023/07/17 03:15:24;;;;;;;;;;;;;;;-144.99;99.36;52215.75;4978751;28;19964;-73
2023/07/17 03:17:51;;;;;;;;;;;;;;;-144.99;99.38;52260.56;4979455;28;19952;-73
2023/07/17 03:20:18;;;;;;;;;;;;;;;-144.99;99.38;52272.81;4976321;28;19964;-72
2023/07/17 03:22:45;;;;;;;;;;;;;;;-144.99;98.96;52244.28;4976998;28;19933;-72
2023/07/17 03:25:13;;;;;;;;;;;;;;;-144.99;98.77;52256.50;4977695;28;19941;-73
2023/07/17 03:27:40;;;;;;;;;;;;;;;-144.99;98.55;52248.34;4977847;28;20388;-71
2023/07/17 03:30:08;;;;;;;;;;;;;;;-144.99;98.44;52283.00;4977660;28;19932;-73
2023/07/17 03:32:34;;;;;;;;;;;;;;;-144.99;98.65;52285.03;4977268;28;19964;-72
2023/07/17 03:35:01;;;;;;;;;;;;;;;-144.99;98.19;52256.50;4976104;28;19975;-74
2023/07/17 03:37:28;;;;;;;;;;;;;;;-144.99;97.93;52276.88;4977579;28;19929;-73
2023/07/17 03:39:54;;;;;;;;;;;;;;;-144.99;97.86;52268.72;4976240;28;19958;-74
2023/07/17 03:42:22;;;;;;;;;;;;;;;-144.99;97.75;52256.50;4974782;28;20471;-71
2023/07/17 03:44:49;;;;;;;;;;;;;;;-144.99;97.84;52248.34;4976456;28;19961;-71
2023/07/17 03:47:16;;;;;;;;;;;;;;;-144.99;97.49;52278.91;4981972;28;19926;-72
2023/07/17 03:49:42;;;;;;;;;;;;;;;-144.99;97.49;52246.31;4980703;28;20024;-73
2023/07/17 03:52:09;;;;;;;;;;;;;;;-144.99;97.17;52264.66;4981149;28;19964;-71
2023/07/17 03:54:35;;;;;;;;;;;;;;;-144.99;97.68;52268.72;4982962;28;19934;-70
2023/07/17 03:57:02;;;;;;;;;;;;;;;-144.99;97.25;52276.88;4978959;28;19944;-70
2023/07/17 03:59:46;;;;;;;;;;;;;;;-144.99;96.92;52285.03;4977571;28;19959;-69
2023/07/17 04:02:13;;;;;;;;;;;;;;;-144.99;96.73;52293.19;4975891;28;20050;-70
2023/07/17 04:04:39;;;;;;;;;;;;;;;-144.99;96.85;52256.50;4976803;28;19960;-70
2023/07/17 04:07:06;;;;;;;;;;;;;;;-144.99;96.50;52268.72;4975760;28;19930;-71
2023/07/17 04:09:32;;;;;;;;;;;;;;;-144.99;96.54;52280.97;4979178;28;19972;-70
2023/07/17 04:11:59;;;;;;;;;;;;;;;-144.99;96.41;52250.38;4975538;28;19985;-70
2023/07/17 04:14:25;;;;;;;;;;;;;;;-144.99;96.38;52268.72;4982202;28;19926;-70
2023/07/17 04:16:53;;;;;;;;;;;;;;;-144.99;96.66;52278.91;4986995;28;20010;-70
2023/07/17 04:19:20;;;;;;;;;;;;;;;-144.99;96.50;52232.03;4993646;28;19965;-69
2023/07/17 04:21:46;;;;;;;;;;;;;;;-144.99;96.84;52227.97;5006010;28;19984;-74
2023/07/17 04:24:13;;;;;;;;;;;;;;;-144.99;96.78;52223.88;4985842;28;19938;-74
2023/07/17 04:26:39;;;;;;;;;;;;;;;-144.99;96.80;52276.88;4989441;28;19926;-75
2023/07/17 04:29:07;;;;;;;;;;;;;;;-144.99;96.32;52260.56;4989193;28;19964;-75
2023/07/17 04:31:33;;;;;;;;;;;;;;;-144.99;96.69;52289.13;4998307;28;20025;-73
2023/07/17 04:34:01;;;;;;;;;;;;;;;-144.99;96.56;52258.53;4991887;28;19967;-72
2023/07/17 04:36:28;;;;;;;;;;;;;;;-144.99;96.16;52227.97;4972428;28;19970;-76
2023/07/17 04:38:54;;;;;;;;;;;;;;;-144.99;96.10;52236.13;4984575;28;19963;-75
2023/07/17 04:41:21;;;;;;;;;;;;;;;-144.99;95.83;52260.56;4980054;28;19951;-76
2023/07/17 04:43:48;;;;;;;;;;;;;;;-144.99;95.76;52256.50;4975511;28;20344;-74
2023/07/17 04:46:14;;;;;;;;;;;;;;;-144.99;95.41;52201.47;4975777;28;19956;-76
2023/07/17 04:48:41;;;;;;;;;;;;;;;-144.99;95.33;52252.44;4975119;28;19975;-76
2023/07/17 04:51:09;;;;;;;;;;;;;;;-144.99;95.14;52270.78;4975780;28;19957;-76
2023/07/17 04:53:35;;;;;;;;;;;;;;;-144.99;94.77;52248.34;4975481;28;19971;-74
2023/07/17 04:56:02;;;;;;;;;;;;;;;-144.99;94.95;52272.81;4976988;28;19973;-75
2023/07/17 04:58:32;;;;;;;;;;;;;;;-144.99;94.70;52236.13;4973074;28;19988;-78
2023/07/17 05:00:59;;;;;;;;;;;;;;;-144.99;95.23;52244.28;4973519;28;20036;-71
2023/07/17 05:03:25;;;;;;;;;;;;;;;-144.99;94.59;52252.44;4981283;28;19960;-68
2023/07/17 05:05:52;;;;;;;;;;;;;;;-144.99;94.59;52219.81;4996192;28;19921;-70
2023/07/17 05:08:20;;;;;;;;;;;;;;;-144.99;94.47;52227.97;4991500;28;19960;-71
2023/07/17 05:10:53;;;;;;;;;;;;;;;-144.99;94.50;52250.38;4982138;28;19955;-70
2023/07/17 05:13:19;;;;;;;;;;;;;;;-144.99;94.45;52248.34;4979223;28;20035;-70
2023/07/17 05:15:46;;;;;;;;;;;;;;;-144.99;94.81;52215.75;4976439;28;19984;-69
2023/07/17 05:18:12;;;;;;;;;;;;;;;-144.99;94.37;52238.16;4971968;28;19952;-75
2023/07/17 05:20:39;;;;;;;;;;;;;;;-144.99;94.43;52232.03;4290556;28;10000746;-74
2023/07/17 05:23:06;;;;;;;;;;;;;;;-144.99;94.62;52236.13;4981244;28;19993;-74
2023/07/17 05:25:34;;;;;;;;;;;;;;;-144.99;94.82;52264.66;4980074;28;19926;-72
2023/07/17 05:28:01;;;;;;;;;;;;;;;-144.99;94.60;52240.19;4978812;28;19938;-77
2023/07/17 05:30:27;;;;;;;;;;;;;;;-144.99;94.54;52236.13;4988866;28;19933;-78
2023/07/17 05:32:54;;;;;;;;;;;;;;;-144.99;94.64;52264.66;4985742;28;19937;-76
2023/07/17 05:35:20;;;;;;;;;;;;;;;-144.99;94.60;52230.00;4987459;28;19943;-75
2023/07/17 05:37:47;;;;;;;;;;;;;;;-144.99;94.68;52264.66;4986751;28;19971;-77
2023/07/17 05:40:13;;;;;;;;;;;;;;;-144.99;94.60;52203.50;4986675;28;19926;-76
2023/07/17 05:42:41;;;;;;;;;;;;;;;-144.99;94.39;52234.09;4984800;28;20061;-77
2023/07/17 05:45:09;;;;;;;;;;;;;;;-144.99;93.89;52256.50;4987178;28;19930;-74
2023/07/17 05:47:37;;;;;;;;;;;;;;;-144.99;92.77;52248.34;4990865;28;20372;-75
2023/07/17 05:50:03;;;;;;;;;;;;;;;-144.99;92.28;52215.75;4987325;28;20012;-76
2023/07/17 05:52:30;;;;;;;;;;;;;;;-144.99;91.36;52191.28;4986501;28;19968;-75
2023/07/17 05:54:57;;;;;;;;;;;;;;;-144.99;91.11;52252.44;4986679;28;19940;-75
2023/07/17 05:57:23;;;;;;;;;;;;;;;-144.99;90.83;52252.44;4981657;28;19979;-76
2023/07/17 05:59:51;;;;;;;;;;;;;;;-144.99;91.08;52215.75;4986406;28;20626;-75
2023/07/17 06:02:18;;;;;;;;;;;;;;;-144.99;90.42;52252.44;4986707;28;20542;-76
2023/07/17 06:04:45;;;;;;;;;;;;;;;-144.99;91.02;52258.53;4980526;28;20348;-76
2023/07/17 06:07:13;;;;;;;;;;;;;;;-144.99;90.93;52201.47;4983339;28;19963;-76
2023/07/17 06:09:39;;;;;;;;;;;;;;;-144.99;90.79;52256.50;4985841;28;19934;-75
2023/07/17 06:12:07;;;;;;;;;;;;;;;-144.99;90.21;52223.88;4985925;28;19944;-74
2023/07/17 06:14:33;;;;;;;;;;;;;;;-144.99;89.85;52221.84;4992569;28;19968;-75
2023/07/17 06:17:01;;;;;;;;;;;;;;;-144.99;89.74;52213.69;4995608;28;19944;-74
2023/07/17 06:19:28;;;;;;;;;;;;;;;-144.99;90.00;52227.97;4983904;28;19929;-73
2023/07/17 06:21:54;;;;;;;;;;;;;;;-144.99;89.39;52215.75;4989202;28;19930;-74
2023/07/17 06:24:21;;;;;;;;;;;;;;;-144.99;88.77;52236.13;4994860;28;20383;-74
2023/07/17 06:26:48;;;;;;;;;;;;;;;-144.99;88.46;52223.88;4990537;28;20043;-74
2023/07/17 06:29:14;;;;;;;;;;;;;;;-144.99;88.00;52195.34;4989060;28;19971;-75
2023/07/17 06:31:41;;;;;;;;;;;;;;;-144.99;87.53;52276.88;4994933;28;19930;-74
2023/07/17 06:34:09;;;;;;;;;;;;;;;-144.99;87.53;52219.81;4989809;28;19929;-74
2023/07/17 06:36:35;;;;;;;;;;;;;;;-144.99;86.99;52232.03;4991347;28;20334;-74
2023/07/17 06:39:02;;;;;;;;;;;;;;;-144.99;86.39;52207.59;4992438;28;19964;-75
2023/07/17 06:41:28;;;;;;;;;;;;;;;-144.99;85.95;52195.34;4993977;28;19930;-74
2023/07/17 06:43:55;;;;;;;;;;;;;;;-144.99;85.96;52213.69;4992276;28;19929;-74
2023/07/17 06:46:22;;;;;;;;;;;;;;;-144.99;86.16;52227.97;4993331;28;19967;-74
2023/07/17 06:48:48;;;;;;;;;;;;;;;-144.99;85.99;52219.81;4990274;28;19964;-74
2023/07/17 06:51:16;;;;;;;;;;;;;;;-144.99;85.00;52219.81;4984949;28;19940;-75
2023/07/17 06:53:43;;;;;;;;;;;;;;;-144.99;85.35;52219.81;4991315;28;19934;-74
2023/07/17 06:56:09;;;;;;;;;;;;;;;-144.99;85.50;52225.94;4995206;28;20059;-76
2023/07/17 06:58:36;;;;;;;;;;;;;;;-144.99;84.04;52179.06;4991826;28;19963;-75
2023/07/17 07:01:03;;;;;;;;;;;;;;;-144.99;84.06;52215.75;4996089;28;19946;-75
2023/07/17 07:03:30;;;;;;;;;;;;;;;-144.99;84.28;52236.13;4997466;28;19970;-76
2023/07/17 07:05:57;;;;;;;;;;;;;;;-144.99;83.66;52234.09;4993976;28;19964;-75
2023/07/17 07:08:25;;;;;;;;;;;;;;;-144.99;84.42;52191.28;4990470;28;19949;-74
2023/07/17 07:10:52;;;;;;;;;;;;;;;-144.99;83.06;52191.28;4992844;28;19929;-74
2023/07/17 07:13:20;;;;;;;;;;;;;;;-144.99;82.72;52219.81;4991855;28;19929;-75
2023/07/17 07:15:47;;;;;;;;;;;;;;;-144.99;82.60;52199.44;4988950;28;19938;-76
2023/07/17 07:18:13;;;;;;;;;;;;;;;-144.99;82.62;52227.97;4986889;28;19953;-74
2023/07/17 07:20:40;;;;;;;;;;;;;;;-144.99;82.72;52203.50;4991887;28;19948;-75
2023/07/17 07:23:06;;;;;;;;;;;;;;;-144.99;82.90;52227.97;4992429;28;19968;-75
2023/07/17 07:25:34;;;;;;;;;;;;;;;-144.99;82.69;52223.88;4993445;28;19944;-74
2023/07/17 07:28:01;;;;;;;;;;;;;;;-144.99;81.40;52195.34;4990846;28;19940;-75
2023/07/17 07:30:28;;;;;;;;;;;;;;;-144.99;80.91;52203.50;4993068;28;19959;-75
2023/07/17 07:32:54;;;;;;;;;;;;;;;-144.99;80.66;52236.13;4990938;28;19944;-74
2023/07/17 07:35:21;;;;;;;;;;;;;;;-144.99;81.06;52215.75;4990287;28;19940;-75
2023/07/17 07:37:48;;;;;;;;;;;;;;;-144.99;81.90;52219.81;4992905;28;19942;-72
2023/07/17 07:40:15;;;;;;;;;;;;;;;-144.99;80.72;52223.88;4993209;28;19930;-74
2023/07/17 07:42:43;;;;;;;;;;;;;;;-144.99;79.68;52219.81;4992692;28;19965;-72
2023/07/17 07:45:10;;;;;;;;;;;;;;;-144.99;79.97;52203.50;4989388;28;20082;-78
2023/07/17 07:47:37;;;;;;;;;;;;;;;-144.99;78.77;52195.34;4989425;28;19940;-75
2023/07/17 07:50:04;;;;;;;;;;;;;;;-144.99;78.43;52205.53;4986656;28;19948;-76
2023/07/17 07:52:31;;;;;;;;;;;;;;;-144.99;77.51;52213.69;5011710;28;19989;-78
2023/07/17 07:54:57;;;;;;;;;;;;;;;-144.99;77.66;52207.59;5003764;28;20059;-75
2023/07/17 07:57:24;;;;;;;;;;;;;;;-144.99;77.20;52183.13;4988298;28;19992;-76
2023/07/17 07:59:52;;;;;;;;;;;;;;;-144.99;76.94;52146.44;4985466;28;20313;-75
2023/07/17 08:02:19;;;;;;;;;;;;;;;-144.99;77.28;52195.34;4987755;28;19930;-76
2023/07/17 08:04:45;;;;;;;;;;;;;;;-144.99;76.09;52193.31;4988756;28;19960;-76
2023/07/17 08:07:12;;;;;;;;;;;;;;;-144.99;74.83;52187.19;4980673;28;20426;-76
2023/07/17 08:09:38;;;;;;;;;;;;;;;-144.99;75.90;52203.50;4987252;28;20455;-78
2023/07/17 08:12:05;;;;;;;;;;;;;;;-144.99;75.27;52211.66;5003568;28;19964;-75
2023/07/17 08:14:32;;;;;;;;;;;;;;;-144.99;75.28;52211.66;4991029;28;19940;-74
2023/07/17 08:17:00;;;;;;;;;;;;;;;-144.99;74.72;52217.78;4990691;28;19929;-75
2023/07/17 08:19:27;;;;;;;;;;;;;;;-144.99;74.54;52211.66;4985856;28;20576;-75
2023/07/17 08:21:53;;;;;;;;;;;;;;;-144.99;75.07;52213.69;4986489;28;20313;-76
2023/07/17 08:24:20;;;;;;;;;;;;;;;-144.99;74.89;52260.56;4984221;28;19937;-75
2023/07/17 08:26:46;;;;;;;;;;;;;;;-144.99;74.39;52227.97;4987797;28;20420;-74
2023/07/17 08:29:13;;;;;;;;;;;;;;;-144.99;74.25;52203.50;4985635;28;19929;-75
2023/07/17 08:31:39;;;;;;;;;;;;;;;-144.99;74.55;52193.31;4987764;28;19930;-74
2023/07/17 08:34:07;;;;;;;;;;;;;;;-144.99;74.39;52199.44;4985003;28;21687;-74
2023/07/17 08:36:34;;;;;;;;;;;;;;;-144.99;74.71;52183.13;4987601;28;19988;-75
2023/07/17 08:39:00;;;;;;;;;;;;;;;-144.99;73.91;52179.06;4987295;28;19949;-75
2023/07/17 08:41:27;;;;;;;;;;;;;;;-144.99;73.17;52195.34;4987071;28;20005;-75
2023/07/17 08:43:53;;;;;;;;;;;;;;;-144.99;73.25;52199.44;4985137;28;20317;-73
2023/07/17 08:46:20;;;;;;;;;;;;;;;-144.99;72.51;52240.19;4981238;28;19926;-75
2023/07/17 08:48:47;;;;;;;;;;;;;;;-144.99;72.88;52211.66;4984984;28;20383;-75
2023/07/17 08:51:16;;;;;;;;;;;;;;;-144.99;73.12;52227.97;4987792;28;19957;-75
2023/07/17 08:53:45;;;;;;;;;;;;;;;-144.99;73.36;52172.94;5001132;28;19937;-78
2023/07/17 08:56:12;;;;;;;;;;;;;;;-144.99;72.84;52166.81;5002453;28;19934;-76
2023/07/17 08:58:40;;;;;;;;;;;;;;;-144.99;72.67;52154.59;4986050;28;19925;-74
2023/07/17 09:01:07;;;;;;;;;;;;;;;-144.99;73.74;52174.97;4987460;28;20388;-76
2023/07/17 09:03:34;;;;;;;;;;;;;;;-144.99;72.42;52187.19;4988159;28;20768;-76
2023/07/17 09:06:03;;;;;;;;;;;;;;;-144.99;71.57;52183.13;4984437;28;20119;-77
2023/07/17 09:08:31;;;;;;;;;;;;;;;-144.99;71.79;52195.34;4987306;28;19949;-76
2023/07/17 09:11:04;;;;;;;;;;;;;;;-144.99;71.33;52170.91;4987725;28;20352;-75
2023/07/17 09:13:38;;;;;;;;;;;;;;;-144.99;71.53;52166.81;4982693;28;19937;-76
2023/07/17 09:16:15;;;;;;;;;;;;;;;-144.99;70.42;52191.28;4980959;28;20025;-75
2023/07/17 09:18:41;;;;;;;;;;;;;;;-144.99;70.56;52170.91;4985510;28;19984;-76
2023/07/17 09:21:08;;;;;;;;;;;;;;;-144.99;68.21;52166.81;4986414;28;19929;-74
2023/07/17 09:23:39;;;;;;;;;;;;;;;-144.99;68.48;52193.31;4980000;28;20271;-75
2023/07/17 09:26:06;;;;;;;;;;;;;;;-144.99;69.05;52134.22;4985638;28;19932;-77
2023/07/17 09:28:36;;;;;;;;;;;;;;;-144.99;67.98;52166.81;4982837;28;19926;-76
2023/07/17 09:31:03;;;;;;;;;;;;;;;-144.99;69.14;52126.06;5003987;28;19920;-77
2023/07/17 09:33:30;;;;;;;;;;;;;;;-144.99;69.07;52134.22;5008130;28;19930;-77
2023/07/17 09:35:57;;;;;;;;;;;;;;;-144.99;67.97;52152.56;4985803;28;19937;-77
2023/07/17 09:38:25;;;;;;;;;;;;;;;-144.99;67.77;52126.06;4984870;28;19934;-76
2023/07/17 09:40:53;;;;;;;;;;;;;;;-144.99;68.36;52134.22;4984454;28;19933;-76
2023/07/17 09:43:29;;;;;;;;;;;;;;;-144.99;68.29;52146.44;4986281;28;19930;-76
2023/07/17 09:45:59;;;;;;;;;;;;;;;-144.99;68.64;52142.38;4986384;28;20028;-76
2023/07/17 09:48:27;;;;;;;;;;;;;;;-144.99;67.70;52201.47;4984683;28;19969;-76
2023/07/17 09:50:57;;;;;;;;;;;;;;;-144.99;67.45;52183.13;4983237;28;20205;-75
2023/07/17 09:53:24;;;;;;;;;;;;;;;-144.99;67.60;52158.66;4986373;28;20020;-78
2023/07/17 09:55:53;;;;;;;;;;;;;;;-144.99;68.13;52203.50;4985885;28;19936;-74
2023/07/17 09:58:22;;;;;;;;;;;;;;;-144.99;67.91;52219.81;4984463;28;20025;-76
2023/07/17 10:00:49;;;;;;;;;;;;;;;-144.99;68.27;52166.81;4982511;28;20464;-76
2023/07/17 10:03:20;;;;;;;;;;;;;;;-144.99;68.36;52142.38;4981020;28;19933;-77
2023/07/17 10:05:47;;;;;;;;;;;;;;;-144.99;68.70;52185.16;4987287;28;20109;-76
2023/07/17 10:08:16;;;;;;;;;;;;;;;-144.99;68.17;52199.44;5000592;28;19914;-75
2023/07/17 10:10:42;;;;;;;;;;;;;;;-144.99;68.18;52168.84;5001118;28;19934;-75
2023/07/17 10:13:11;;;;;;;;;;;;;;;-144.99;68.29;52128.09;4999559;28;19920;-77
2023/07/17 10:15:38;;;;;;;;;;;;;;;-144.99;68.50;52134.22;4990048;28;20582;-74
2023/07/17 10:18:08;;;;;;;;;;;;;;;-144.99;67.54;52170.91;4979269;28;19930;-75
2023/07/17 10:20:34;;;;;;;;;;;;;;;-144.99;67.32;52170.91;4985419;28;20407;-76
2023/07/17 10:23:01;;;;;;;;;;;;;;;-144.99;67.50;52134.22;4984616;28;19934;-75
2023/07/17 10:25:28;;;;;;;;;;;;;;;-144.99;67.41;52162.75;4984471;28;19930;-75
2023/07/17 10:27:58;;;;;;;;;;;;;;;-144.99;67.54;52093.44;4982189;28;19945;-74
2023/07/17 10:30:27;;;;;;;;;;;;;;;-144.99;68.19;52124.03;4980830;28;19952;-76
2023/07/17 10:33:07;;;;;;;;;;;;;;;-144.99;68.27;52121.97;4987309;28;19934;-77
2023/07/17 10:35:44;;;;;;;;;;;;;;;-144.99;67.61;52130.13;4986063;28;19929;-74
2023/07/17 10:38:11;;;;;;;;;;;;;;;-144.99;68.11;52154.59;5007785;28;19914;-78
2023/07/17 10:40:38;;;;;;;;;;;;;;;-144.99;67.83;52154.59;5008113;28;19926;-75
2023/07/17 10:43:12;;;;;;;;;;;;;;;-144.99;68.25;52146.44;4986080;28;19926;-76
2023/07/17 10:45:40;;;;;;;;;;;;;;;-144.99;68.21;52117.91;4996880;28;19914;-77
2023/07/17 10:48:07;;;;;;;;;;;;;;;-144.99;67.13;52154.59;5012197;28;19926;-77
2023/07/17 10:50:34;;;;;;;;;;;;;;;-144.99;66.99;52099.56;4987192;28;19938;-75
2023/07/17 10:53:03;;;;;;;;;;;;;;;-144.99;66.92;52138.28;4983568;28;19953;-76
2023/07/17 10:55:30;;;;;;;;;;;;;;;-144.99;67.34;52162.75;4982315;28;19930;-76
2023/07/17 10:57:57;;;;;;;;;;;;;;;-144.99;68.07;52191.28;4982839;28;20128;-77
2023/07/17 11:00:24;;;;;;;;;;;;;;;-144.99;68.12;52174.97;4986099;28;19929;-77
2023/07/17 11:02:52;;;;;;;;;;;;;;;-144.99;67.79;52146.44;4987440;28;19933;-75
2023/07/17 11:05:18;;;;;;;;;;;;;;;-144.99;67.92;52154.59;4998501;28;19926;-78
2023/07/17 11:07:44;;;;;;;;;;;;;;;-144.99;68.20;52146.44;5003090;28;19930;-77
2023/07/17 11:10:12;;;;;;;;;;;;;;;-144.99;67.86;52187.19;5006761;28;20614;-78
2023/07/17 11:12:38;;;;;;;;;;;;;;;-144.99;68.28;52187.19;5005363;28;19941;-77
2023/07/17 11:15:12;;;;;;;;;;;;;;;-144.99;69.40;52230.00;5009994;28;19988;-76
2023/07/17 11:17:39;;;;;;;;;;;;;;;-144.99;70.84;52207.59;5018651;28;19929;-77
2023/07/17 11:20:08;;;;;;;;;;;;;;;-144.99;71.35;52219.81;5020110;28;19920;-75
2023/07/17 11:22:36;;;;;;;;;;;;;;;-144.99;71.84;52227.97;5020491;28;19924;-77
2023/07/17 11:25:03;;;;;;;;;;;;;;;-144.99;71.87;52227.97;5020814;28;19953;-76
2023/07/17 11:27:30;;;;;;;;;;;;;;;-144.99;72.20;52242.22;5017320;28;19914;-77
2023/07/17 11:29:56;;;;;;;;;;;;;;;-144.99;72.24;52162.75;5009743;28;19934;-76
2023/07/17 11:32:23;;;;;;;;;;;;;;;-144.99;72.78;52115.88;5016762;28;19925;-77
2023/07/17 11:34:53;;;;;;;;;;;;;;;-144.99;73.43;52203.50;5016674;28;19917;-77
2023/07/17 11:37:34;;;;;;;;;;;;;;;-144.99;74.43;52240.19;5013385;28;19993;-74
2023/07/17 11:40:03;;;;;;;;;;;;;;;-144.99;74.94;52244.28;5015904;28;19976;-76
2023/07/17 11:42:29;;;;;;;;;;;;;;;-144.99;75.86;52227.97;5005058;28;19936;-76
2023/07/17 11:44:59;;;;;;;;;;;;;;;-144.99;78.04;52244.28;5008664;28;19940;-75
2023/07/17 11:47:27;;;;;;;;;;;;;;;-144.99;83.25;52252.44;4993457;28;19933;-74
2023/07/17 11:49:54;;;;;;;;;;;;;;;-144.99;86.09;52236.13;4988777;28;19969;-75
2023/07/17 11:52:21;;;;;;;;;;;;;;;-144.99;89.42;52268.72;4988755;28;19926;-76
2023/07/17 11:54:49;;;;;;;;;;;;;;;-144.99;93.26;52278.91;4983443;28;20044;-75
2023/07/17 11:57:15;;;;;;;;;;;;;;;-144.99;96.07;52268.72;4987652;28;20305;-76
2023/07/17 11:59:44;;;;;;;;;;;;;;;-144.99;95.62;52236.13;4992457;28;19937;-78
2023/07/17 12:02:11;;;;;;;;;;;;;;;-144.99;95.09;52287.06;5019361;28;19920;-78
2023/07/17 12:04:40;;;;;;;;;;;;;;;-144.99;95.06;52268.72;4999083;28;19941;-76
2023/07/17 12:07:07;;;;;;;;;;;;;;;-144.99;96.13;52272.81;4991771;28;20025;-74
2023/07/17 12:09:34;;;;;;;;;;;;;;;-144.99;97.01;52285.03;4988512;28;19968;-75
2023/07/17 12:12:01;;;;;;;;;;;;;;;-144.99;97.89;52297.25;4988426;28;20416;-75
2023/07/17 12:14:28;;;;;;;;;;;;;;;-144.99;96.83;52291.16;5006396;28;19976;-77
2023/07/17 12:16:55;;;;;;;;;;;;;;;-144.99;97.22;52317.66;4973350;28;20044;-74
2023/07/17 12:19:21;;;;;;;;;;;;;;;-144.99;96.40;52256.50;4986276;28;20389;-75
2023/07/17 12:21:49;;;;;;;;;;;;;;;-144.99;96.19;52285.03;4987028;28;20401;-76
2023/07/17 12:24:15;;;;;;;;;;;;;;;-144.99;95.62;52295.22;4987752;28;19937;-75
2023/07/17 12:26:42;;;;;;;;;;;;;;;-144.99;95.45;52278.91;4987917;28;19929;-75